sensor_id;sensor_type;location;lat;lon;timestamp;temperature;humidity
15426;DHT22;7812;50.072;7.036;2023-04-05T00:01:30;0.20;99.90
15426;DHT22;7812;50.072;7.036;2023-04-05T00:03:56;0.00;99.90
15426;DHT22;7812;50.072;7.036;2023-04-05T00:06:27;-0.10;99.90
15426;DHT22;7812;50.072;7.036;2023-04-05T00:08:59;-0.10;99.90
15426;DHT22;7812;50.072;7.036;2023-04-05T00:11:27;-0.10;99.90
15426;DHT22;7812;50.072;7.036;2023-04-05T00:13:52;-0.10;99.90
15426;DHT22;7812;50.072;7.036;2023-04-05T00:16:19;-0.20;99.90
15426;DHT22;7812;50.072;7.036;2023-04-05T00:18:46;-0.10;99.90
15426;DHT22;7812;50.072;7.036;2023-04-05T00:21:19;-0.10;99.90
15426;DHT22;7812;50.072;7.036;2023-04-05T00:23:49;-0.20;99.90
15426;DHT22;7812;50.072;7.036;2023-04-05T00:26:16;-0.20;99.90
15426;DHT22;7812;50.072;7.036;2023-04-05T00:28:42;-0.20;99.90
15426;DHT22;7812;50.072;7.036;2023-04-05T00:31:08;-0.30;99.90
15426;DHT22;7812;50.072;7.036;2023-04-05T00:33:34;-0.40;99.90
15426;DHT22;7812;50.072;7.036;2023-04-05T00:36:13;-0.50;99.90
15426;DHT22;7812;50.072;7.036;2023-04-05T00:38:40;-0.50;99.90
15426;DHT22;7812;50.072;7.036;2023-04-05T00:41:06;-0.40;99.90
15426;DHT22;7812;50.072;7.036;2023-04-05T00:43:32;-0.40;99.90
15426;DHT22;7812;50.072;7.036;2023-04-05T00:45:58;-0.30;99.90
15426;DHT22;7812;50.072;7.036;2023-04-05T00:48:24;-0.30;99.90
15426;DHT22;7812;50.072;7.036;2023-04-05T00:50:52;-0.30;99.90
15426;DHT22;7812;50.072;7.036;2023-04-05T00:53:18;-0.30;99.90
15426;DHT22;7812;50.072;7.036;2023-04-05T00:55:45;-0.30;99.90
15426;DHT22;7812;50.072;7.036;2023-04-05T00:58:12;-0.40;99.90
15426;DHT22;7812;50.072;7.036;2023-04-05T01:00:39;-0.40;99.90
15426;DHT22;7812;50.072;7.036;2023-04-05T01:03:05;-0.40;99.90
15426;DHT22;7812;50.072;7.036;2023-04-05T01:05:50;-0.40;99.90
15426;DHT22;7812;50.072;7.036;2023-04-05T01:08:31;-0.40;99.90
15426;DHT22;7812;50.072;7.036;2023-04-05T01:11:02;-0.40;99.90
15426;DHT22;7812;50.072;7.036;2023-04-05T01:13:29;-0.50;99.90
15426;DHT22;7812;50.072;7.036;2023-04-05T01:15:55;-0.50;99.90
15426;DHT22;7812;50.072;7.036;2023-04-05T01:18:20;-0.50;99.90
15426;DHT22;7812;50.072;7.036;2023-04-05T01:20:56;-0.40;99.90
15426;DHT22;7812;50.072;7.036;2023-04-05T01:23:44;-0.40;99.90
15426;DHT22;7812;50.072;7.036;2023-04-05T01:37:48;-0.60;99.90
15426;DHT22;7812;50.072;7.036;2023-04-05T01:40:14;-0.50;99.90
15426;DHT22;7812;50.072;7.036;2023-04-05T01:42:43;-0.50;99.90
15426;DHT22;7812;50.072;7.036;2023-04-05T01:45:09;-0.50;99.90
15426;DHT22;7812;50.072;7.036;2023-04-05T01:47:35;-0.50;99.90
15426;DHT22;7812;50.072;7.036;2023-04-05T01:50:00;-0.40;99.90
15426;DHT22;7812;50.072;7.036;2023-04-05T01:52:26;-0.40;99.90
15426;DHT22;7812;50.072;7.036;2023-04-05T01:54:53;-0.40;99.90
15426;DHT22;7812;50.072;7.036;2023-04-05T01:57:19;-0.50;99.90
15426;DHT22;7812;50.072;7.036;2023-04-05T01:59:44;-0.40;99.90
15426;DHT22;7812;50.072;7.036;2023-04-05T02:02:10;-0.10;99.90
15426;DHT22;7812;50.072;7.036;2023-04-05T02:04:35;-0.20;99.90
15426;DHT22;7812;50.072;7.036;2023-04-05T02:07:01;-0.20;99.90
15426;DHT22;7812;50.072;7.036;2023-04-05T02:09:28;-0.20;99.90
15426;DHT22;7812;50.072;7.036;2023-04-05T02:11:53;-0.20;99.90
15426;DHT22;7812;50.072;7.036;2023-04-05T02:14:20;-0.30;99.90
15426;DHT22;7812;50.072;7.036;2023-04-05T02:16:46;-0.30;99.90
15426;DHT22;7812;50.072;7.036;2023-04-05T02:19:12;-0.20;99.90
15426;DHT22;7812;50.072;7.036;2023-04-05T02:21:40;-0.20;99.90
15426;DHT22;7812;50.072;7.036;2023-04-05T02:24:06;-0.30;99.90
15426;DHT22;7812;50.072;7.036;2023-04-05T02:26:31;-0.30;99.90
15426;DHT22;7812;50.072;7.036;2023-04-05T02:28:57;-0.40;99.90
15426;DHT22;7812;50.072;7.036;2023-04-05T02:31:23;-0.60;99.90
15426;DHT22;7812;50.072;7.036;2023-04-05T02:33:48;-0.70;99.90
15426;DHT22;7812;50.072;7.036;2023-04-05T02:36:15;-0.70;99.90
15426;DHT22;7812;50.072;7.036;2023-04-05T02:38:40;-0.70;99.90
15426;DHT22;7812;50.072;7.036;2023-04-05T02:41:10;-0.80;99.90
15426;DHT22;7812;50.072;7.036;2023-04-05T02:43:38;-0.80;99.90
15426;DHT22;7812;50.072;7.036;2023-04-05T02:46:04;-0.70;99.90
15426;DHT22;7812;50.072;7.036;2023-04-05T02:48:29;-0.80;99.90
15426;DHT22;7812;50.072;7.036;2023-04-05T02:50:55;-0.70;99.90
15426;DHT22;7812;50.072;7.036;2023-04-05T02:53:21;-0.60;99.90
15426;DHT22;7812;50.072;7.036;2023-04-05T02:55:54;-0.70;99.90
15426;DHT22;7812;50.072;7.036;2023-04-05T02:58:21;-0.70;99.90
15426;DHT22;7812;50.072;7.036;2023-04-05T03:00:48;-0.70;99.90
15426;DHT22;7812;50.072;7.036;2023-04-05T03:03:19;-0.60;99.90
15426;DHT22;7812;50.072;7.036;2023-04-05T03:05:45;-0.60;99.90
15426;DHT22;7812;50.072;7.036;2023-04-05T03:08:13;-0.60;99.90
15426;DHT22;7812;50.072;7.036;2023-04-05T03:10:45;-0.50;99.90
15426;DHT22;7812;50.072;7.036;2023-04-05T03:13:11;-0.60;99.90
15426;DHT22;7812;50.072;7.036;2023-04-05T03:15:37;-0.70;99.90
15426;DHT22;7812;50.072;7.036;2023-04-05T03:18:03;-0.70;99.90
15426;DHT22;7812;50.072;7.036;2023-04-05T03:20:29;-0.70;99.90
15426;DHT22;7812;50.072;7.036;2023-04-05T03:22:54;-0.80;99.90
15426;DHT22;7812;50.072;7.036;2023-04-05T03:25:20;-0.90;99.90
15426;DHT22;7812;50.072;7.036;2023-04-05T03:27:46;-0.80;99.90
15426;DHT22;7812;50.072;7.036;2023-04-05T03:30:12;-0.90;99.90
15426;DHT22;7812;50.072;7.036;2023-04-05T03:32:37;-0.90;99.90
15426;DHT22;7812;50.072;7.036;2023-04-05T03:35:03;-0.90;99.90
15426;DHT22;7812;50.072;7.036;2023-04-05T03:37:29;-1.00;99.90
15426;DHT22;7812;50.072;7.036;2023-04-05T03:39:55;-1.00;99.90
15426;DHT22;7812;50.072;7.036;2023-04-05T03:42:21;-0.90;99.90
15426;DHT22;7812;50.072;7.036;2023-04-05T03:44:51;-0.90;99.90
15426;DHT22;7812;50.072;7.036;2023-04-05T03:47:16;-1.00;99.90
15426;DHT22;7812;50.072;7.036;2023-04-05T03:49:42;-1.10;99.90
15426;DHT22;7812;50.072;7.036;2023-04-05T03:52:08;-1.10;99.90
15426;DHT22;7812;50.072;7.036;2023-04-05T03:54:34;-1.10;99.90
15426;DHT22;7812;50.072;7.036;2023-04-05T03:57:00;-1.00;99.90
15426;DHT22;7812;50.072;7.036;2023-04-05T03:59:26;-1.00;99.90
15426;DHT22;7812;50.072;7.036;2023-04-05T04:01:52;-1.10;99.90
15426;DHT22;7812;50.072;7.036;2023-04-05T04:04:18;-1.20;99.90
15426;DHT22;7812;50.072;7.036;2023-04-05T04:06:43;-1.20;99.90
15426;DHT22;7812;50.072;7.036;2023-04-05T04:09:09;-1.20;99.90
15426;DHT22;7812;50.072;7.036;2023-04-05T04:11:35;-1.20;99.90
15426;DHT22;7812;50.072;7.036;2023-04-05T04:14:01;-1.20;99.90
15426;DHT22;7812;50.072;7.036;2023-04-05T04:16:26;-1.30;99.90
15426;DHT22;7812;50.072;7.036;2023-04-05T04:18:52;-1.40;99.90
15426;DHT22;7812;50.072;7.036;2023-04-05T04:21:19;-1.30;99.90
15426;DHT22;7812;50.072;7.036;2023-04-05T04:23:51;-1.20;99.90
15426;DHT22;7812;50.072;7.036;2023-04-05T04:26:17;-1.10;99.90
15426;DHT22;7812;50.072;7.036;2023-04-05T04:28:52;-0.90;99.90
15426;DHT22;7812;50.072;7.036;2023-04-05T04:31:18;-1.10;99.90
15426;DHT22;7812;50.072;7.036;2023-04-05T04:33:48;-1.10;99.90
15426;DHT22;7812;50.072;7.036;2023-04-05T04:36:14;-1.00;99.90
15426;DHT22;7812;50.072;7.036;2023-04-05T04:38:40;-1.00;99.90
15426;DHT22;7812;50.072;7.036;2023-04-05T04:41:09;-0.90;99.90
15426;DHT22;7812;50.072;7.036;2023-04-05T04:43:35;-0.90;99.90
15426;DHT22;7812;50.072;7.036;2023-04-05T04:46:07;-0.80;99.90
15426;DHT22;7812;50.072;7.036;2023-04-05T04:48:35;-0.80;99.90
15426;DHT22;7812;50.072;7.036;2023-04-05T04:51:02;-0.90;99.90
15426;DHT22;7812;50.072;7.036;2023-04-05T04:53:28;-1.00;99.90
15426;DHT22;7812;50.072;7.036;2023-04-05T04:55:54;-1.10;99.90
15426;DHT22;7812;50.072;7.036;2023-04-05T04:58:21;-1.20;99.90
15426;DHT22;7812;50.072;7.036;2023-04-05T05:00:48;-1.30;99.90
15426;DHT22;7812;50.072;7.036;2023-04-05T05:03:17;-1.40;99.90
15426;DHT22;7812;50.072;7.036;2023-04-05T05:05:44;-1.50;99.90
15426;DHT22;7812;50.072;7.036;2023-04-05T05:08:11;-1.50;99.90
15426;DHT22;7812;50.072;7.036;2023-04-05T05:10:37;-1.50;99.90
15426;DHT22;7812;50.072;7.036;2023-04-05T05:13:03;-1.50;99.90
15426;DHT22;7812;50.072;7.036;2023-04-05T05:15:28;-1.50;99.90
15426;DHT22;7812;50.072;7.036;2023-04-05T05:17:54;-1.40;99.90
15426;DHT22;7812;50.072;7.036;2023-04-05T05:20:20;-1.40;99.90
15426;DHT22;7812;50.072;7.036;2023-04-05T05:22:46;-1.40;99.90
15426;DHT22;7812;50.072;7.036;2023-04-05T05:25:13;-1.40;99.90
15426;DHT22;7812;50.072;7.036;2023-04-05T05:27:39;-1.40;99.90
15426;DHT22;7812;50.072;7.036;2023-04-05T05:30:06;-1.30;99.90
15426;DHT22;7812;50.072;7.036;2023-04-05T05:32:32;-1.20;99.90
15426;DHT22;7812;50.072;7.036;2023-04-05T05:34:58;-1.00;99.90
15426;DHT22;7812;50.072;7.036;2023-04-05T05:37:31;-0.80;99.90
15426;DHT22;7812;50.072;7.036;2023-04-05T05:39:58;-0.60;99.90
15426;DHT22;7812;50.072;7.036;2023-04-05T05:42:24;-0.60;99.90
15426;DHT22;7812;50.072;7.036;2023-04-05T05:44:50;-0.60;99.90
15426;DHT22;7812;50.072;7.036;2023-04-05T05:47:16;-0.60;99.90
15426;DHT22;7812;50.072;7.036;2023-04-05T05:49:41;-0.60;99.90
15426;DHT22;7812;50.072;7.036;2023-04-05T05:52:07;-0.60;99.90
15426;DHT22;7812;50.072;7.036;2023-04-05T05:54:33;-0.60;99.90
15426;DHT22;7812;50.072;7.036;2023-04-05T05:57:01;-0.60;99.90
15426;DHT22;7812;50.072;7.036;2023-04-05T05:59:26;-0.60;99.90
15426;DHT22;7812;50.072;7.036;2023-04-05T06:01:53;-0.60;99.90
15426;DHT22;7812;50.072;7.036;2023-04-05T06:04:19;-0.60;99.90
15426;DHT22;7812;50.072;7.036;2023-04-05T06:06:45;-0.90;99.90
15426;DHT22;7812;50.072;7.036;2023-04-05T06:09:12;-0.90;99.90
15426;DHT22;7812;50.072;7.036;2023-04-05T06:11:39;0.20;99.90
15426;DHT22;7812;50.072;7.036;2023-04-05T06:14:04;1.70;99.90
15426;DHT22;7812;50.072;7.036;2023-04-05T06:16:30;3.30;99.90
15426;DHT22;7812;50.072;7.036;2023-04-05T06:18:56;4.30;99.90
15426;DHT22;7812;50.072;7.036;2023-04-05T06:21:22;4.80;99.90
15426;DHT22;7812;50.072;7.036;2023-04-05T06:23:48;4.40;99.90
15426;DHT22;7812;50.072;7.036;2023-04-05T06:26:18;5.20;99.90
15426;DHT22;7812;50.072;7.036;2023-04-05T06:28:45;6.70;99.90
15426;DHT22;7812;50.072;7.036;2023-04-05T06:31:16;7.40;99.90
15426;DHT22;7812;50.072;7.036;2023-04-05T06:33:42;7.70;99.90
15426;DHT22;7812;50.072;7.036;2023-04-05T06:36:09;7.90;99.90
15426;DHT22;7812;50.072;7.036;2023-04-05T06:38:35;7.60;99.90
15426;DHT22;7812;50.072;7.036;2023-04-05T06:41:01;8.50;99.90
15426;DHT22;7812;50.072;7.036;2023-04-05T06:43:27;8.60;99.90
15426;DHT22;7812;50.072;7.036;2023-04-05T06:45:56;9.30;99.90
15426;DHT22;7812;50.072;7.036;2023-04-05T06:48:22;9.50;99.90
15426;DHT22;7812;50.072;7.036;2023-04-05T06:50:58;9.10;99.90
15426;DHT22;7812;50.072;7.036;2023-04-05T06:53:25;7.40;99.90
15426;DHT22;7812;50.072;7.036;2023-04-05T06:55:55;8.60;99.90
15426;DHT22;7812;50.072;7.036;2023-04-05T06:58:22;9.50;99.90
15426;DHT22;7812;50.072;7.036;2023-04-05T07:00:48;8.40;99.90
15426;DHT22;7812;50.072;7.036;2023-04-05T07:03:14;6.20;99.90
15426;DHT22;7812;50.072;7.036;2023-04-05T07:05:40;7.20;99.90
15426;DHT22;7812;50.072;7.036;2023-04-05T07:08:14;8.10;99.90
15426;DHT22;7812;50.072;7.036;2023-04-05T07:10:39;9.50;99.90
15426;DHT22;7812;50.072;7.036;2023-04-05T07:13:05;11.00;99.90
15426;DHT22;7812;50.072;7.036;2023-04-05T07:15:31;12.20;99.90
15426;DHT22;7812;50.072;7.036;2023-04-05T07:17:57;12.70;99.90
15426;DHT22;7812;50.072;7.036;2023-04-05T07:20:22;12.90;99.90
15426;DHT22;7812;50.072;7.036;2023-04-05T07:22:48;11.80;99.90
15426;DHT22;7812;50.072;7.036;2023-04-05T07:25:14;10.40;99.90
15426;DHT22;7812;50.072;7.036;2023-04-05T07:27:39;11.10;99.90
15426;DHT22;7812;50.072;7.036;2023-04-05T07:30:06;10.70;99.90
15426;DHT22;7812;50.072;7.036;2023-04-05T07:32:33;12.70;99.90
15426;DHT22;7812;50.072;7.036;2023-04-05T07:34:59;14.20;99.90
15426;DHT22;7812;50.072;7.036;2023-04-05T07:37:24;14.90;99.90
15426;DHT22;7812;50.072;7.036;2023-04-05T07:39:51;15.60;99.90
15426;DHT22;7812;50.072;7.036;2023-04-05T07:42:17;16.60;99.90
15426;DHT22;7812;50.072;7.036;2023-04-05T07:44:46;16.60;98.10
15426;DHT22;7812;50.072;7.036;2023-04-05T07:47:11;17.10;97.70
15426;DHT22;7812;50.072;7.036;2023-04-05T07:49:37;17.90;96.30
15426;DHT22;7812;50.072;7.036;2023-04-05T07:52:03;18.30;94.90
15426;DHT22;7812;50.072;7.036;2023-04-05T07:54:30;17.50;93.90
15426;DHT22;7812;50.072;7.036;2023-04-05T07:56:58;17.50;94.90
15426;DHT22;7812;50.072;7.036;2023-04-05T07:59:23;18.60;93.10
15426;DHT22;7812;50.072;7.036;2023-04-05T08:01:49;17.00;94.00
15426;DHT22;7812;50.072;7.036;2023-04-05T08:04:18;17.90;93.90
15426;DHT22;7812;50.072;7.036;2023-04-05T08:06:45;15.00;93.40
15426;DHT22;7812;50.072;7.036;2023-04-05T08:09:11;15.30;92.70
15426;DHT22;7812;50.072;7.036;2023-04-05T08:11:37;16.20;95.20
15426;DHT22;7812;50.072;7.036;2023-04-05T08:14:03;16.60;90.40
15426;DHT22;7812;50.072;7.036;2023-04-05T08:16:29;16.90;92.70
15426;DHT22;7812;50.072;7.036;2023-04-05T08:18:55;17.00;89.30
15426;DHT22;7812;50.072;7.036;2023-04-05T08:21:22;17.00;92.10
15426;DHT22;7812;50.072;7.036;2023-04-05T08:23:47;16.90;91.80
15426;DHT22;7812;50.072;7.036;2023-04-05T08:26:16;17.70;90.60
15426;DHT22;7812;50.072;7.036;2023-04-05T08:28:42;18.30;84.60
15426;DHT22;7812;50.072;7.036;2023-04-05T08:31:08;18.50;83.40
15426;DHT22;7812;50.072;7.036;2023-04-05T08:33:33;19.00;88.10
15426;DHT22;7812;50.072;7.036;2023-04-05T08:36:04;21.00;83.90
15426;DHT22;7812;50.072;7.036;2023-04-05T08:38:30;22.00;77.30
15426;DHT22;7812;50.072;7.036;2023-04-05T08:40:57;19.40;71.10
15426;DHT22;7812;50.072;7.036;2023-04-05T08:46:16;19.10;76.30
15426;DHT22;7812;50.072;7.036;2023-04-05T08:48:44;18.70;79.00
15426;DHT22;7812;50.072;7.036;2023-04-05T08:51:10;17.60;74.80
15426;DHT22;7812;50.072;7.036;2023-04-05T08:53:36;16.60;74.30
15426;DHT22;7812;50.072;7.036;2023-04-05T08:56:02;14.60;75.00
15426;DHT22;7812;50.072;7.036;2023-04-05T08:58:30;13.50;78.40
15426;DHT22;7812;50.072;7.036;2023-04-05T09:00:56;15.50;81.30
15426;DHT22;7812;50.072;7.036;2023-04-05T09:03:30;16.70;77.00
15426;DHT22;7812;50.072;7.036;2023-04-05T09:06:00;16.70;73.80
15426;DHT22;7812;50.072;7.036;2023-04-05T09:08:28;16.10;73.20
15426;DHT22;7812;50.072;7.036;2023-04-05T09:10:53;16.80;74.50
15426;DHT22;7812;50.072;7.036;2023-04-05T09:13:19;18.50;74.80
15426;DHT22;7812;50.072;7.036;2023-04-05T09:15:45;19.50;69.60
15426;DHT22;7812;50.072;7.036;2023-04-05T09:18:11;21.10;72.40
15426;DHT22;7812;50.072;7.036;2023-04-05T09:20:37;22.60;69.30
15426;DHT22;7812;50.072;7.036;2023-04-05T09:23:03;22.90;64.50
15426;DHT22;7812;50.072;7.036;2023-04-05T09:25:35;22.00;64.80
15426;DHT22;7812;50.072;7.036;2023-04-05T09:28:03;22.00;64.50
15426;DHT22;7812;50.072;7.036;2023-04-05T09:30:29;21.20;63.80
15426;DHT22;7812;50.072;7.036;2023-04-05T09:32:55;21.10;63.70
15426;DHT22;7812;50.072;7.036;2023-04-05T09:35:23;21.40;66.80
15426;DHT22;7812;50.072;7.036;2023-04-05T09:37:51;22.70;63.50
15426;DHT22;7812;50.072;7.036;2023-04-05T09:40:22;23.00;60.20
15426;DHT22;7812;50.072;7.036;2023-04-05T09:42:48;22.30;59.90
15426;DHT22;7812;50.072;7.036;2023-04-05T09:45:14;22.80;61.30
15426;DHT22;7812;50.072;7.036;2023-04-05T09:47:40;22.40;61.60
15426;DHT22;7812;50.072;7.036;2023-04-05T09:50:16;18.60;58.70
15426;DHT22;7812;50.072;7.036;2023-04-05T09:52:43;16.40;59.90
15426;DHT22;7812;50.072;7.036;2023-04-05T09:55:09;16.30;62.10
15426;DHT22;7812;50.072;7.036;2023-04-05T09:57:40;17.40;60.60
15426;DHT22;7812;50.072;7.036;2023-04-05T10:00:16;17.10;62.00
15426;DHT22;7812;50.072;7.036;2023-04-05T10:02:42;18.30;60.30
15426;DHT22;7812;50.072;7.036;2023-04-05T10:05:08;18.80;62.10
15426;DHT22;7812;50.072;7.036;2023-04-05T10:07:38;21.00;60.20
15426;DHT22;7812;50.072;7.036;2023-04-05T10:10:04;18.60;59.20
15426;DHT22;7812;50.072;7.036;2023-04-05T10:12:31;19.20;60.30
15426;DHT22;7812;50.072;7.036;2023-04-05T10:14:57;21.60;58.90
15426;DHT22;7812;50.072;7.036;2023-04-05T10:17:26;22.20;59.80
15426;DHT22;7812;50.072;7.036;2023-04-05T10:22:33;18.50;55.50
15426;DHT22;7812;50.072;7.036;2023-04-05T10:28:14;19.70;61.40
15426;DHT22;7812;50.072;7.036;2023-04-05T10:30:46;22.50;60.00
15426;DHT22;7812;50.072;7.036;2023-04-05T10:33:19;23.10;57.40
15426;DHT22;7812;50.072;7.036;2023-04-05T10:39:11;22.60;56.30
15426;DHT22;7812;50.072;7.036;2023-04-05T10:41:48;21.90;55.30
15426;DHT22;7812;50.072;7.036;2023-04-05T10:44:16;21.70;54.90
15426;DHT22;7812;50.072;7.036;2023-04-05T10:46:44;21.90;54.50
15426;DHT22;7812;50.072;7.036;2023-04-05T10:49:28;22.30;54.50
15426;DHT22;7812;50.072;7.036;2023-04-05T10:51:57;20.90;56.10
15426;DHT22;7812;50.072;7.036;2023-04-05T10:54:23;21.60;54.80
15426;DHT22;7812;50.072;7.036;2023-04-05T10:56:49;21.30;54.70
15426;DHT22;7812;50.072;7.036;2023-04-05T10:59:15;21.40;55.90
15426;DHT22;7812;50.072;7.036;2023-04-05T11:01:42;21.50;54.10
15426;DHT22;7812;50.072;7.036;2023-04-05T11:04:13;21.30;55.20
15426;DHT22;7812;50.072;7.036;2023-04-05T11:06:40;22.20;54.80
15426;DHT22;7812;50.072;7.036;2023-04-05T11:09:19;22.10;53.90
15426;DHT22;7812;50.072;7.036;2023-04-05T11:11:47;21.70;55.30
15426;DHT22;7812;50.072;7.036;2023-04-05T11:16:48;21.10;56.60
15426;DHT22;7812;50.072;7.036;2023-04-05T11:19:18;18.40;56.20
15426;DHT22;7812;50.072;7.036;2023-04-05T11:21:44;17.40;57.40
15426;DHT22;7812;50.072;7.036;2023-04-05T11:24:12;17.60;56.60
15426;DHT22;7812;50.072;7.036;2023-04-05T11:29:09;18.30;56.70
15426;DHT22;7812;50.072;7.036;2023-04-05T11:31:36;19.20;56.50
15426;DHT22;7812;50.072;7.036;2023-04-05T11:34:23;19.30;55.70
15426;DHT22;7812;50.072;7.036;2023-04-05T11:36:49;19.00;55.80
15426;DHT22;7812;50.072;7.036;2023-04-05T11:42:05;18.80;56.10
15426;DHT22;7812;50.072;7.036;2023-04-05T11:47:10;19.60;57.00
15426;DHT22;7812;50.072;7.036;2023-04-05T11:49:37;20.30;56.10
15426;DHT22;7812;50.072;7.036;2023-04-05T11:52:17;18.60;55.80
15426;DHT22;7812;50.072;7.036;2023-04-05T11:54:44;18.70;56.60
15426;DHT22;7812;50.072;7.036;2023-04-05T11:57:23;17.70;56.10
15426;DHT22;7812;50.072;7.036;2023-04-05T11:59:50;17.70;56.40
15426;DHT22;7812;50.072;7.036;2023-04-05T12:02:16;18.20;57.90
15426;DHT22;7812;50.072;7.036;2023-04-05T12:04:42;16.50;56.60
15426;DHT22;7812;50.072;7.036;2023-04-05T12:09:34;17.10;60.00
15426;DHT22;7812;50.072;7.036;2023-04-05T12:12:00;17.30;56.70
15426;DHT22;7812;50.072;7.036;2023-04-05T12:14:25;17.90;57.30
15426;DHT22;7812;50.072;7.036;2023-04-05T12:16:51;19.80;57.80
15426;DHT22;7812;50.072;7.036;2023-04-05T12:19:17;21.20;55.00
15426;DHT22;7812;50.072;7.036;2023-04-05T12:21:44;19.00;53.20
15426;DHT22;7812;50.072;7.036;2023-04-05T12:24:10;17.70;54.70
15426;DHT22;7812;50.072;7.036;2023-04-05T12:26:36;16.40;54.60
15426;DHT22;7812;50.072;7.036;2023-04-05T12:29:03;16.50;55.80
15426;DHT22;7812;50.072;7.036;2023-04-05T12:31:39;17.30;57.40
15426;DHT22;7812;50.072;7.036;2023-04-05T12:34:05;17.30;54.90
15426;DHT22;7812;50.072;7.036;2023-04-05T12:36:31;16.90;57.00
15426;DHT22;7812;50.072;7.036;2023-04-05T12:38:58;17.40;56.40
15426;DHT22;7812;50.072;7.036;2023-04-05T12:41:30;17.80;56.10
15426;DHT22;7812;50.072;7.036;2023-04-05T12:43:56;17.10;58.30
15426;DHT22;7812;50.072;7.036;2023-04-05T12:46:46;18.70;58.30
15426;DHT22;7812;50.072;7.036;2023-04-05T12:49:16;20.00;54.70
15426;DHT22;7812;50.072;7.036;2023-04-05T12:51:44;18.50;55.30
15426;DHT22;7812;50.072;7.036;2023-04-05T12:54:14;17.60;57.20
15426;DHT22;7812;50.072;7.036;2023-04-05T12:56:41;18.60;56.30
15426;DHT22;7812;50.072;7.036;2023-04-05T12:59:07;18.20;54.90
15426;DHT22;7812;50.072;7.036;2023-04-05T13:01:33;18.90;56.70
15426;DHT22;7812;50.072;7.036;2023-04-05T13:03:59;19.50;54.80
15426;DHT22;7812;50.072;7.036;2023-04-05T13:06:26;20.20;57.30
15426;DHT22;7812;50.072;7.036;2023-04-05T13:08:52;18.70;53.40
15426;DHT22;7812;50.072;7.036;2023-04-05T13:11:18;16.70;55.90
15426;DHT22;7812;50.072;7.036;2023-04-05T13:13:43;17.30;54.80
15426;DHT22;7812;50.072;7.036;2023-04-05T13:16:09;17.10;55.70
15426;DHT22;7812;50.072;7.036;2023-04-05T13:18:35;17.20;57.40
15426;DHT22;7812;50.072;7.036;2023-04-05T13:21:00;18.00;57.60
15426;DHT22;7812;50.072;7.036;2023-04-05T13:23:35;18.00;55.10
15426;DHT22;7812;50.072;7.036;2023-04-05T13:26:02;18.20;57.30
15426;DHT22;7812;50.072;7.036;2023-04-05T13:28:28;18.50;58.30
15426;DHT22;7812;50.072;7.036;2023-04-05T13:30:53;18.80;57.00
15426;DHT22;7812;50.072;7.036;2023-04-05T13:33:20;17.00;53.90
15426;DHT22;7812;50.072;7.036;2023-04-05T13:35:45;15.60;54.90
15426;DHT22;7812;50.072;7.036;2023-04-05T13:38:11;15.80;56.30
15426;DHT22;7812;50.072;7.036;2023-04-05T13:40:37;15.10;56.00
15426;DHT22;7812;50.072;7.036;2023-04-05T13:43:03;15.10;56.90
15426;DHT22;7812;50.072;7.036;2023-04-05T13:45:29;15.00;56.40
15426;DHT22;7812;50.072;7.036;2023-04-05T13:47:56;15.40;56.90
15426;DHT22;7812;50.072;7.036;2023-04-05T13:50:24;16.10;57.60
15426;DHT22;7812;50.072;7.036;2023-04-05T13:52:50;14.80;56.30
15426;DHT22;7812;50.072;7.036;2023-04-05T13:55:16;14.80;56.70
15426;DHT22;7812;50.072;7.036;2023-04-05T13:57:42;15.10;57.30
15426;DHT22;7812;50.072;7.036;2023-04-05T14:00:08;16.10;57.60
15426;DHT22;7812;50.072;7.036;2023-04-05T14:02:34;16.40;56.60
15426;DHT22;7812;50.072;7.036;2023-04-05T14:05:00;15.80;56.30
15426;DHT22;7812;50.072;7.036;2023-04-05T14:07:26;15.50;56.40
15426;DHT22;7812;50.072;7.036;2023-04-05T14:09:52;15.70;58.20
15426;DHT22;7812;50.072;7.036;2023-04-05T14:12:18;15.20;58.20
15426;DHT22;7812;50.072;7.036;2023-04-05T14:14:43;15.60;57.00
15426;DHT22;7812;50.072;7.036;2023-04-05T14:17:09;15.10;57.30
15426;DHT22;7812;50.072;7.036;2023-04-05T14:19:37;14.60;57.10
15426;DHT22;7812;50.072;7.036;2023-04-05T14:22:03;14.40;58.60
15426;DHT22;7812;50.072;7.036;2023-04-05T14:24:28;14.50;59.40
15426;DHT22;7812;50.072;7.036;2023-04-05T14:26:54;14.40;59.20
15426;DHT22;7812;50.072;7.036;2023-04-05T14:29:21;14.30;58.10
15426;DHT22;7812;50.072;7.036;2023-04-05T14:31:47;14.60;60.30
15426;DHT22;7812;50.072;7.036;2023-04-05T14:34:13;14.10;58.50
15426;DHT22;7812;50.072;7.036;2023-04-05T14:36:39;13.60;58.60
15426;DHT22;7812;50.072;7.036;2023-04-05T14:39:04;13.40;59.10
15426;DHT22;7812;50.072;7.036;2023-04-05T14:41:30;13.10;60.00
15426;DHT22;7812;50.072;7.036;2023-04-05T14:43:56;13.10;61.50
15426;DHT22;7812;50.072;7.036;2023-04-05T14:46:22;13.50;64.30
15426;DHT22;7812;50.072;7.036;2023-04-05T14:48:47;13.50;59.80
15426;DHT22;7812;50.072;7.036;2023-04-05T14:51:13;12.80;61.30
15426;DHT22;7812;50.072;7.036;2023-04-05T14:53:39;12.50;62.70
15426;DHT22;7812;50.072;7.036;2023-04-05T14:56:06;12.50;62.80
15426;DHT22;7812;50.072;7.036;2023-04-05T14:58:34;12.50;62.90
15426;DHT22;7812;50.072;7.036;2023-04-05T15:01:00;12.50;62.90
15426;DHT22;7812;50.072;7.036;2023-04-05T15:03:26;12.60;63.30
15426;DHT22;7812;50.072;7.036;2023-04-05T15:05:52;12.70;61.80
15426;DHT22;7812;50.072;7.036;2023-04-05T15:08:18;12.80;62.30
15426;DHT22;7812;50.072;7.036;2023-04-05T15:10:44;13.10;63.20
15426;DHT22;7812;50.072;7.036;2023-04-05T15:13:10;13.10;63.00
15426;DHT22;7812;50.072;7.036;2023-04-05T15:15:36;13.30;65.20
15426;DHT22;7812;50.072;7.036;2023-04-05T15:18:04;13.50;66.50
15426;DHT22;7812;50.072;7.036;2023-04-05T15:20:30;13.10;62.20
15426;DHT22;7812;50.072;7.036;2023-04-05T15:22:56;13.20;69.90
15426;DHT22;7812;50.072;7.036;2023-04-05T15:25:22;13.60;68.00
15426;DHT22;7812;50.072;7.036;2023-04-05T15:27:48;13.70;65.60
15426;DHT22;7812;50.072;7.036;2023-04-05T15:30:14;13.50;64.20
15426;DHT22;7812;50.072;7.036;2023-04-05T15:32:40;12.50;63.60
15426;DHT22;7812;50.072;7.036;2023-04-05T15:35:06;12.00;66.40
15426;DHT22;7812;50.072;7.036;2023-04-05T15:37:32;12.00;65.50
15426;DHT22;7812;50.072;7.036;2023-04-05T15:39:57;12.00;67.40
15426;DHT22;7812;50.072;7.036;2023-04-05T15:42:23;12.10;67.00
15426;DHT22;7812;50.072;7.036;2023-04-05T15:44:49;12.60;65.80
15426;DHT22;7812;50.072;7.036;2023-04-05T15:47:16;12.90;65.20
15426;DHT22;7812;50.072;7.036;2023-04-05T15:49:42;13.00;65.40
15426;DHT22;7812;50.072;7.036;2023-04-05T15:52:11;12.20;64.40
15426;DHT22;7812;50.072;7.036;2023-04-05T15:54:37;12.00;64.80
15426;DHT22;7812;50.072;7.036;2023-04-05T15:57:02;11.80;65.10
15426;DHT22;7812;50.072;7.036;2023-04-05T15:59:28;11.80;65.60
15426;DHT22;7812;50.072;7.036;2023-04-05T16:01:54;11.60;66.60
15426;DHT22;7812;50.072;7.036;2023-04-05T16:04:20;11.50;65.90
15426;DHT22;7812;50.072;7.036;2023-04-05T16:06:46;11.30;66.30
15426;DHT22;7812;50.072;7.036;2023-04-05T16:09:11;11.10;67.10
15426;DHT22;7812;50.072;7.036;2023-04-05T16:11:37;11.10;69.50
15426;DHT22;7812;50.072;7.036;2023-04-05T16:14:03;11.40;70.50
15426;DHT22;7812;50.072;7.036;2023-04-05T16:16:29;11.70;69.10
15426;DHT22;7812;50.072;7.036;2023-04-05T16:18:55;12.00;67.90
15426;DHT22;7812;50.072;7.036;2023-04-05T16:21:21;12.10;68.00
15426;DHT22;7812;50.072;7.036;2023-04-05T16:23:47;12.20;66.00